Time;durP1;ratioP1;P1;durP2;ratioP2;P2;SDS_P1;SDS_P2;PMS_P1;PMS_P2;Temp;Humidity;BMP_temperature;BMP_pressure;BME280_temperature;BME280_humidity;BME280_pressure;Samples;Min_cycle;Max_cycle;Signal;HPM_P1;HPM_P2
2022/01/19 00:01:39;;;;;;;22.55;6.60;;;;;;;-0.29;72.08;101756.41;4416304;32;33832;-64
2022/01/19 00:04:07;;;;;;;23.20;5.82;;;;;;;-0.04;70.94;101750.03;4420251;32;33658;-64
2022/01/19 00:06:35;;;;;;;20.75;6.15;;;;;;;0.47;69.16;101755.97;4423114;32;34826;-64
2022/01/19 00:09:02;;;;;;;21.05;5.68;;;;;;;0.21;69.69;101758.94;4411744;32;33650;-64
2022/01/19 00:11:30;;;;;;;17.50;6.45;;;;;;;0.82;67.62;101743.81;4418509;32;34669;-64
2022/01/19 00:13:57;;;;;;;18.95;6.37;;;;;;;0.61;67.87;101747.38;4416510;32;33974;-64
2022/01/19 00:16:25;;;;;;;16.60;6.35;;;;;;;0.95;67.04;101747.94;4423415;32;34859;-64
2022/01/19 00:18:53;;;;;;;20.52;6.65;;;;;;;0.98;66.72;101758.53;4422391;32;34231;-64
2022/01/19 00:21:20;;;;;;;23.55;6.65;;;;;;;0.57;67.77;101766.50;4421620;32;33667;-64
2022/01/19 00:23:48;;;;;;;16.17;6.47;;;;;;;0.10;70.02;101772.97;4422460;32;34702;-64
2022/01/19 00:26:15;;;;;;;14.52;5.50;;;;;;;0.18;69.29;101764.59;4418286;32;32494;-64
2022/01/19 00:28:43;;;;;;;18.58;7.15;;;;;;;0.48;68.54;101763.78;4421402;32;33628;-64
2022/01/19 00:31:11;;;;;;;22.65;6.22;;;;;;;0.53;67.40;101774.53;4418635;32;34705;-64
2022/01/19 00:33:39;;;;;;;22.52;6.00;;;;;;;0.63;67.91;101789.25;4422225;32;33937;-64
2022/01/19 00:36:08;;;;;;;24.45;6.90;;;;;;;0.92;66.91;101780.75;4422161;32;34028;-64
2022/01/19 00:38:35;;;;;;;18.62;6.45;;;;;;;0.62;67.26;101784.88;4418089;32;33675;-62
2022/01/19 00:41:03;;;;;;;17.85;6.82;;;;;;;0.41;68.08;101794.41;4417832;32;34107;-62
2022/01/19 00:43:31;;;;;;;24.10;7.80;;;;;;;0.33;68.44;101792.63;4420401;32;34673;-62
2022/01/19 00:45:58;;;;;;;20.88;7.07;;;;;;;0.02;69.83;101799.19;4421307;32;33786;-62
2022/01/19 00:48:27;;;;;;;14.85;6.32;;;;;;;0.85;67.20;101790.09;4421475;32;33630;-62
2022/01/19 00:50:56;;;;;;;18.70;7.10;;;;;;;0.70;67.17;101795.25;4420398;32;34694;-62
2022/01/19 00:53:25;;;;;;;19.65;7.30;;;;;;;1.24;65.56;101793.75;4416010;32;33952;-62
2022/01/19 00:55:53;;;;;;;22.50;7.60;;;;;;;0.48;67.64;101809.69;4416902;32;34231;-62
2022/01/19 00:58:21;;;;;;;23.90;7.15;;;;;;;0.64;67.50;101808.91;4415047;32;33339;-62
2022/01/19 01:00:49;;;;;;;22.20;7.22;;;;;;;1.09;65.26;101799.66;4413312;32;32445;-62
2022/01/19 01:03:17;;;;;;;19.35;6.78;;;;;;;0.82;66.11;101798.31;4422292;32;34014;-62
2022/01/19 01:05:44;;;;;;;18.37;6.00;;;;;;;1.14;64.67;101775.53;4417698;32;34051;-62
2022/01/19 01:08:12;;;;;;;22.10;7.20;;;;;;;1.33;64.07;101778.53;4421294;32;33614;-62
2022/01/19 01:10:43;;;;;;;20.67;7.10;;;;;;;1.50;63.16;101790.66;4421911;32;33851;-62
2022/01/19 01:16:16;;;;;;;21.20;6.90;;;;;;;-0.53;70.79;101777.31;4422852;32;34237;-62
2022/01/19 01:18:37;;;;;;;24.42;7.62;;;;;;;-0.41;70.49;101773.69;4418775;32;33724;-62
2022/01/19 01:21:05;;;;;;;20.65;7.87;;;;;;;0.15;68.32;101776.94;4419225;32;34743;-62
2022/01/19 01:23:34;;;;;;;20.33;7.00;;;;;;;0.37;67.30;101764.19;4412116;32;33262;-62
2022/01/19 01:26:04;;;;;;;20.85;7.97;;;;;;;-0.44;70.71;101760.62;4421819;32;34017;-62
2022/01/19 01:28:33;;;;;;;21.25;6.68;;;;;;;-0.71;71.78;101764.19;4418140;32;32858;-62
2022/01/19 01:31:00;;;;;;;20.98;7.50;;;;;;;-0.82;71.93;101767.09;4418372;32;32329;-62
2022/01/19 01:33:28;;;;;;;20.70;7.40;;;;;;;0.11;68.76;101759.50;4419883;32;34593;-62
2022/01/19 01:35:56;;;;;;;15.45;7.60;;;;;;;-0.93;72.80;101734.34;4418764;32;34093;-62
2022/01/19 01:38:24;;;;;;;21.77;7.55;;;;;;;-0.08;69.35;101730.97;4421205;32;33550;-62
2022/01/19 01:41:12;;;;;;;16.92;6.85;;;;;;;-0.02;68.82;101728.19;4415992;32;33820;-62
2022/01/19 01:43:44;;;;;;;20.17;6.95;;;;;;;-1.50;74.59;101741.03;4419985;32;33726;-62
2022/01/19 01:46:30;;;;;;;27.73;7.12;;;;;;;-0.46;71.95;101731.53;4421429;32;34151;-62
2022/01/19 01:48:57;;;;;;;18.00;6.47;;;;;;;-1.16;74.45;101724.81;4416070;32;33418;-62
2022/01/19 01:54:11;;;;;;;19.98;7.15;;;;;;;-0.38;69.93;101717.16;4412985;32;33899;-62
2022/01/19 01:56:40;;;;;;;18.02;7.37;;;;;;;-0.44;70.01;101719.88;4414409;32;34060;-62
2022/01/19 01:59:10;;;;;;;26.10;6.45;;;;;;;0.18;68.45;101713.62;4416965;32;33784;-62
2022/01/19 02:01:40;;;;;;;24.65;7.30;;;;;;;0.45;67.21;101722.66;4444521;26;34647;-81
2022/01/19 02:04:08;;;;;;;18.08;6.60;;;;;;;0.15;67.91;101720.88;4460959;32;34382;-81
2022/01/19 02:07:05;;;;;;;27.33;7.22;;;;;;;-0.76;70.81;101724.56;4479595;26;33847;-62
2022/01/19 02:09:34;;;;;;;21.52;8.23;;;;;;;-0.58;71.42;101707.13;4462088;32;33046;-63
2022/01/19 02:23:25;;;;;;;12.55;5.72;;;;;;;-0.22;69.29;101708.94;4457855;32;33889;-63
2022/01/19 02:25:56;;;;;;;21.62;7.60;;;;;;;-0.12;69.06;101700.75;4461617;32;34068;-62
2022/01/19 02:31:46;;;;;;;18.33;7.30;;;;;;;-0.64;70.87;101700.59;4462309;32;32834;-63
2022/01/19 02:42:29;;;;;;;18.30;6.80;;;;;;;-0.31;69.90;101682.41;4460719;32;34325;-62
2022/01/19 02:50:10;;;;;;;16.17;7.00;;;;;;;-1.20;72.63;101676.84;4460540;32;35023;-63
2022/01/19 02:52:38;;;;;;;19.80;6.95;;;;;;;-0.28;69.90;101672.56;4463110;32;34447;-64
2022/01/19 02:55:05;;;;;;;19.62;7.70;;;;;;;-0.82;71.67;101657.66;4465249;32;33891;-62
2022/01/19 02:57:35;;;;;;;26.77;8.90;;;;;;;-1.65;75.91;101668.00;4463034;32;32571;-62
2022/01/19 03:11:15;;;;;;;20.83;7.62;;;;;;;-1.84;76.16;101659.72;4461092;32;34717;-62
2022/01/19 03:13:44;;;;;;;20.23;7.60;;;;;;;-1.52;74.85;101657.72;4445779;32;34442;-63
2022/01/19 03:16:13;;;;;;;14.93;6.43;;;;;;;-1.36;74.47;101647.75;4459803;32;34436;-62
2022/01/19 03:18:41;;;;;;;22.67;7.47;;;;;;;-1.51;74.51;101647.69;4465289;32;34005;-63
2022/01/19 03:21:09;;;;;;;24.10;7.50;;;;;;;-1.56;75.03;101646.25;4458062;32;34857;-62
2022/01/19 03:23:36;;;;;;;25.73;8.32;;;;;;;-1.42;74.75;101643.75;4467336;32;33608;-63
2022/01/19 03:26:05;;;;;;;23.10;7.30;;;;;;;-0.98;73.21;101643.87;4463731;32;34469;-63
2022/01/19 03:28:33;;;;;;;23.60;7.72;;;;;;;-0.93;72.59;101635.12;4460951;32;34711;-63
2022/01/19 03:31:02;;;;;;;21.27;6.70;;;;;;;-0.89;71.87;101635.69;4457440;32;34360;-63
2022/01/19 03:33:30;;;;;;;25.58;7.53;;;;;;;-0.41;70.24;101643.84;4458549;32;33758;-63
2022/01/19 03:35:58;;;;;;;16.15;6.45;;;;;;;-1.00;71.80;101642.03;4463353;32;34082;-63
2022/01/19 03:38:25;;;;;;;20.92;7.10;;;;;;;-0.70;70.61;101636.22;4465384;32;33914;-62
2022/01/19 03:40:53;;;;;;;21.92;7.78;;;;;;;-0.93;72.39;101635.12;4457795;32;34302;-63
2022/01/19 03:43:20;;;;;;;23.10;7.85;;;;;;;-0.52;70.10;101644.22;4454934;32;33643;-63
2022/01/19 03:45:53;;;;;;;23.50;7.10;;;;;;;-0.85;71.02;101642.03;4456132;32;34948;-63
2022/01/19 03:51:20;;;;;;;24.55;9.02;;;;;;;-0.63;70.06;101640.41;4466283;32;35161;-63
2022/01/19 03:53:48;;;;;;;23.42;9.18;;;;;;;-0.16;68.51;101637.44;4462068;32;34455;-63
2022/01/19 03:56:17;;;;;;;28.45;9.82;;;;;;;-0.96;70.68;101638.22;4464197;32;34155;-64
2022/01/19 03:58:44;;;;;;;21.50;8.85;;;;;;;-0.81;70.57;101634.06;4465184;32;33937;-63
2022/01/19 04:01:13;;;;;;;26.15;10.27;;;;;;;-0.54;69.73;101640.56;4459632;32;34189;-63
2022/01/19 04:06:39;;;;;;;27.05;9.70;;;;;;;-0.48;68.94;101641.31;4458574;32;33877;-63
2022/01/19 04:09:07;;;;;;;25.30;9.52;;;;;;;-1.49;71.83;101638.62;4457455;32;33312;-62
2022/01/19 04:11:35;;;;;;;24.27;9.77;;;;;;;-1.58;72.63;101646.06;4465521;32;34184;-63
2022/01/19 04:16:33;;;;;;;21.12;8.13;;;;;;;-1.32;71.26;101637.25;4463417;32;34573;-62
2022/01/19 04:19:20;;;;;;;20.33;9.48;;;;;;;-1.04;71.35;101634.75;4457298;32;33871;-63
2022/01/19 04:21:52;;;;;;;22.62;8.50;;;;;;;-1.35;71.59;101634.31;4461275;32;34063;-63
2022/01/19 04:24:20;;;;;;;23.87;8.35;;;;;;;-1.39;71.54;101631.41;4445289;32;32425;-63
2022/01/19 04:29:37;;;;;;;19.37;8.25;;;;;;;-1.92;72.66;101624.88;4466049;32;33940;-63
2022/01/19 04:32:11;;;;;;;22.13;7.87;;;;;;;-2.47;74.76;101629.06;4447894;32;34833;-62
2022/01/19 04:34:42;;;;;;;17.50;7.97;;;;;;;-2.68;75.23;101630.72;4458240;32;34411;-63
2022/01/19 05:06:51;;;;;;;20.17;8.38;;;;;;;-2.17;70.87;101601.50;4460042;32;33551;-62
2022/01/19 05:09:38;;;;;;;26.30;8.98;;;;;;;-2.31;71.45;101601.44;4465606;32;34589;-61
2022/01/19 05:14:53;;;;;;;19.15;7.32;;;;;;;-2.49;72.45;101600.03;4460507;32;34697;-62
2022/01/19 05:17:21;;;;;;;24.33;7.68;;;;;;;-2.63;73.09;101596.72;4466723;32;34445;-61
2022/01/19 05:19:49;;;;;;;19.90;7.15;;;;;;;-2.37;72.27;101602.50;4456718;32;34874;-62
2022/01/19 05:22:16;;;;;;;21.62;8.40;;;;;;;-2.23;71.63;101599.13;4458410;32;34720;-62
2022/01/19 05:24:46;;;;;;;20.73;8.18;;;;;;;-2.80;73.68;101596.19;4465688;32;34350;-61
2022/01/19 05:27:14;;;;;;;20.60;8.38;;;;;;;-2.42;73.02;101600.09;4457613;32;33601;-62
2022/01/19 05:29:41;;;;;;;18.95;8.30;;;;;;;-2.84;74.55;101599.06;4467123;32;33685;-61
2022/01/19 05:32:09;;;;;;;21.75;8.40;;;;;;;-2.99;74.46;101598.97;4464039;32;33505;-61
2022/01/19 05:34:37;;;;;;;19.80;9.18;;;;;;;-2.67;73.54;101589.41;4466463;32;34217;-61
2022/01/19 05:37:06;;;;;;;25.05;10.18;;;;;;;-2.67;73.78;101599.56;4455689;32;34401;-62
2022/01/19 05:39:37;;;;;;;23.70;9.82;;;;;;;-3.03;75.21;101596.75;4461191;32;33604;-61
2022/01/19 05:42:05;;;;;;;29.12;10.95;;;;;;;-2.89;74.83;101602.66;4463074;32;33795;-62
2022/01/19 05:44:33;;;;;;;24.83;10.18;;;;;;;-3.01;75.06;101602.94;4464979;32;34889;-61
2022/01/19 05:47:01;;;;;;;29.52;11.07;;;;;;;-2.58;74.05;101600.72;4463869;32;33639;-61
2022/01/19 05:49:28;;;;;;;23.50;9.85;;;;;;;-2.21;72.88;101595.13;4457436;32;33946;-61
2022/01/19 05:51:56;;;;;;;26.12;9.65;;;;;;;-2.31;72.57;101598.91;4458504;32;34627;-62
2022/01/19 05:54:24;;;;;;;26.58;9.25;;;;;;;-2.19;71.30;101588.63;4457596;32;34115;-62
2022/01/19 05:56:52;;;;;;;21.12;9.25;;;;;;;-2.23;71.82;101588.97;4466644;32;33123;-62
2022/01/19 05:59:22;;;;;;;21.75;9.88;;;;;;;-1.85;70.15;101582.63;4460733;32;33793;-62
2022/01/19 06:01:49;;;;;;;25.30;9.75;;;;;;;-1.91;70.17;101584.41;4461805;32;33886;-62
2022/01/19 06:04:18;;;;;;;26.95;11.07;;;;;;;-2.06;70.58;101601.22;4443676;32;34885;-62
2022/01/19 06:06:45;;;;;;;20.35;9.73;;;;;;;-1.93;69.46;101603.66;4442888;32;33755;-62
2022/01/19 06:12:06;;;;;;;25.60;10.88;;;;;;;-1.89;69.08;101594.75;4455337;32;34619;-61
2022/01/19 06:14:36;;;;;;;25.40;12.07;;;;;;;-1.95;69.58;101594.00;4461997;32;33983;-61
2022/01/19 06:17:05;;;;;;;35.60;12.52;;;;;;;-2.01;69.81;101600.16;4472053;32;34409;-62
2022/01/19 06:19:34;;;;;;;23.85;11.50;;;;;;;-1.24;67.46;101589.13;4464652;32;34466;-62
2022/01/19 06:22:03;;;;;;;29.50;13.02;;;;;;;-1.80;68.42;101596.81;4463616;32;33937;-62
2022/01/19 06:24:30;;;;;;;33.60;13.13;;;;;;;-2.07;70.03;101601.03;4464899;32;33950;-62
2022/01/19 06:26:58;;;;;;;39.15;15.30;;;;;;;-2.24;70.90;101599.87;4461262;32;34406;-61
2022/01/19 06:29:27;;;;;;;41.42;19.00;;;;;;;-2.81;73.04;101609.59;4457899;32;33594;-62
2022/01/19 06:31:55;;;;;;;56.83;27.25;;;;;;;-2.82;72.69;101603.63;4471873;32;33607;-62
2022/01/19 06:34:22;;;;;;;60.72;28.20;;;;;;;-2.53;71.89;101610.53;4469210;32;34685;-63
2022/01/19 06:36:51;;;;;;;53.35;20.40;;;;;;;-2.45;71.21;101607.34;4464853;32;33456;-61
2022/01/19 06:39:23;;;;;;;42.28;17.15;;;;;;;-2.62;72.23;101600.16;4465997;32;34159;-62
2022/01/19 06:41:52;;;;;;;39.22;16.75;;;;;;;-2.40;71.98;101606.28;4461538;32;34495;-65
2022/01/19 06:44:19;;;;;;;41.47;18.80;;;;;;;-2.76;72.84;101603.50;4463342;32;34761;-65
2022/01/19 06:46:48;;;;;;;40.95;17.95;;;;;;;-2.60;72.60;101606.31;4459605;32;33741;-65
2022/01/19 06:49:16;;;;;;;40.05;17.20;;;;;;;-2.34;71.42;101607.03;4466645;32;34060;-64
2022/01/19 06:51:43;;;;;;;36.63;15.20;;;;;;;-1.15;66.75;101596.94;4465818;32;34071;-65
2022/01/19 06:54:12;;;;;;;28.00;11.25;;;;;;;-0.75;64.38;101594.06;4464089;32;34222;-63
2022/01/19 06:56:40;;;;;;;24.75;9.25;;;;;;;-0.94;64.22;101585.87;4464854;32;33479;-61
2022/01/19 06:59:08;;;;;;;22.75;8.90;;;;;;;-1.11;64.35;101586.41;4460753;32;33720;-61
2022/01/19 07:01:36;;;;;;;19.75;8.70;;;;;;;-2.50;68.31;101599.13;4459786;32;33834;-62
2022/01/19 07:04:05;;;;;;;29.48;10.35;;;;;;;-1.75;67.35;101591.38;4467645;32;34961;-60
2022/01/19 07:06:32;;;;;;;22.80;9.23;;;;;;;-1.74;67.12;101580.47;4462578;32;34301;-61
2022/01/19 07:09:01;;;;;;;24.52;10.23;;;;;;;-1.49;66.51;101575.09;4467012;32;33777;-61
2022/01/19 07:11:29;;;;;;;22.70;9.55;;;;;;;-1.19;65.45;101577.88;4460363;32;34949;-63
2022/01/19 07:13:57;;;;;;;20.67;9.02;;;;;;;-1.19;64.61;101587.16;4459672;32;34825;-63
2022/01/19 07:16:25;;;;;;;30.15;10.73;;;;;;;-1.31;64.84;101581.50;4468460;32;34429;-61
2022/01/19 07:18:52;;;;;;;25.65;10.32;;;;;;;-2.61;69.83;101574.06;4466125;32;33852;-62
2022/01/19 07:21:20;;;;;;;26.67;11.57;;;;;;;-2.70;71.31;101573.81;4466533;32;33759;-62
2022/01/19 07:23:48;;;;;;;26.80;11.82;;;;;;;-3.08;73.09;101571.53;4447646;32;34863;-62
2022/01/19 07:26:20;;;;;;;23.85;12.65;;;;;;;-1.82;69.17;101564.28;4463742;32;33534;-62
2022/01/19 07:28:48;;;;;;;25.83;12.43;;;;;;;-1.42;66.70;101564.03;4462306;32;33818;-63
2022/01/19 07:31:16;;;;;;;28.38;12.05;;;;;;;-1.08;65.50;101560.44;4464501;32;33919;-61
2022/01/19 07:33:43;;;;;;;26.52;11.38;;;;;;;-0.90;64.69;101547.38;4461629;32;34867;-62
2022/01/19 07:36:11;;;;;;;25.08;10.52;;;;;;;-1.32;66.37;101558.44;4460950;32;32387;-62
2022/01/19 07:38:40;;;;;;;23.48;10.65;;;;;;;-1.07;65.17;101554.63;4450687;32;33832;-62
2022/01/19 07:41:09;;;;;;;29.15;11.12;;;;;;;-0.45;63.78;101540.72;4459092;32;33625;-62
2022/01/19 07:43:39;;;;;;;27.62;11.25;;;;;;;-0.60;63.92;101529.69;4454305;32;31950;-63
2022/01/19 07:46:08;;;;;;;31.67;13.70;;;;;;;-0.72;65.06;101534.97;4465493;32;33752;-62
2022/01/19 07:48:36;;;;;;;23.40;12.60;;;;;;;-1.54;68.45;101538.06;4460812;32;33938;-62
2022/01/19 07:51:08;;;;;;;28.77;12.48;;;;;;;-1.32;68.22;101535.56;4465723;32;34053;-61
2022/01/19 07:53:36;;;;;;;39.53;15.50;;;;;;;-1.25;68.70;101535.56;4464030;32;34943;-62
2022/01/19 07:56:06;;;;;;;29.52;13.62;;;;;;;-1.29;69.23;101538.47;4454518;32;32920;-63
2022/01/19 07:58:34;;;;;;;30.10;11.95;;;;;;;-2.25;73.41;101537.09;4452174;32;33773;-61
2022/01/19 08:01:04;;;;;;;30.10;11.68;;;;;;;-2.27;73.67;101543.62;4443750;32;32179;-63
2022/01/19 08:03:35;;;;;;;26.85;10.70;;;;;;;-1.86;72.81;101545.22;4457370;32;33728;-64
2022/01/19 08:06:07;;;;;;;34.10;11.93;;;;;;;-1.63;71.19;101544.56;4469799;32;33612;-61
2022/01/19 08:08:35;;;;;;;34.75;13.50;;;;;;;-2.11;73.90;101536.25;4459214;32;34679;-61
2022/01/19 08:11:03;;;;;;;36.05;14.25;;;;;;;-2.01;73.69;101529.06;4465596;32;34783;-62
2022/01/19 08:13:32;;;;;;;31.02;12.15;;;;;;;-2.12;74.58;101538.63;4466303;32;34077;-61
2022/01/19 08:16:00;;;;;;;29.10;13.43;;;;;;;-1.93;74.06;101532.53;4469377;32;33811;-61
2022/01/19 08:18:27;;;;;;;32.25;13.98;;;;;;;-0.76;70.44;101521.00;4459294;32;33835;-61
2022/01/19 08:20:55;;;;;;;37.95;13.80;;;;;;;-1.17;71.33;101527.22;4467037;32;33451;-61
2022/01/19 08:23:23;;;;;;;40.80;14.65;;;;;;;-1.23;71.95;101519.75;4458547;32;33900;-61
2022/01/19 08:25:51;;;;;;;40.95;17.50;;;;;;;-0.35;68.59;101516.34;4462808;32;34220;-61
2022/01/19 08:28:20;;;;;;;48.15;18.73;;;;;;;-0.83;70.24;101509.19;4459826;32;34248;-61
2022/01/19 08:30:48;;;;;;;52.65;21.77;;;;;;;-0.58;70.03;101501.84;4457114;32;33914;-61
2022/01/19 08:33:17;;;;;;;60.20;23.50;;;;;;;0.07;66.94;101507.59;4452652;32;34060;-61
2022/01/19 08:35:45;;;;;;;62.10;27.95;;;;;;;0.80;65.07;101514.06;4461468;32;33642;-62
2022/01/19 08:38:27;;;;;;;61.25;25.35;;;;;;;0.34;66.39;101511.47;4459522;32;34700;-62
2022/01/19 08:40:58;;;;;;;44.88;19.05;;;;;;;0.66;65.46;101511.63;4429737;32;33004;-63
2022/01/19 08:43:25;;;;;;;35.17;16.00;;;;;;;0.31;67.47;101511.09;4458390;32;34805;-61
2022/01/19 08:45:55;;;;;;;31.90;13.07;;;;;;;0.86;66.82;101509.62;4455978;32;33509;-62
2022/01/19 08:48:23;;;;;;;32.65;13.43;;;;;;;0.63;67.36;101504.53;4438402;32;34029;-62
2022/01/19 08:50:51;;;;;;;31.37;12.68;;;;;;;0.36;69.39;101507.44;4454354;32;33946;-62
2022/01/19 08:53:21;;;;;;;27.50;11.95;;;;;;;0.67;68.85;101513.44;4455618;32;34256;-61
2022/01/19 08:55:49;;;;;;;26.45;11.43;;;;;;;0.73;68.58;101509.00;4454595;32;33461;-61
2022/01/19 08:58:17;;;;;;;23.58;11.12;;;;;;;0.80;69.25;101501.31;4455084;32;34618;-62
2022/01/19 09:00:45;;;;;;;25.98;10.35;;;;;;;0.85;68.26;101496.69;4447316;32;33799;-62
2022/01/19 09:03:17;;;;;;;27.87;11.95;;;;;;;0.55;69.67;101501.13;4457426;32;34088;-62
2022/01/19 09:05:45;;;;;;;29.80;11.02;;;;;;;0.71;69.12;101507.94;4444736;32;32240;-62
2022/01/19 09:08:14;;;;;;;27.42;12.13;;;;;;;0.45;70.18;101505.94;4455356;32;34508;-61
2022/01/19 09:10:42;;;;;;;23.25;10.48;;;;;;;1.28;67.68;101498.88;4461395;32;33682;-61
2022/01/19 09:13:10;;;;;;;27.13;10.50;;;;;;;1.57;66.45;101494.34;4457258;32;34192;-65
2022/01/19 09:15:37;;;;;;;22.77;9.85;;;;;;;1.11;67.63;101499.56;4457269;32;34170;-63
2022/01/19 09:18:05;;;;;;;22.70;10.32;;;;;;;1.36;67.17;101491.28;4462074;32;33981;-63
2022/01/19 09:20:33;;;;;;;26.23;10.95;;;;;;;2.14;65.10;101492.69;4462415;32;33590;-63
2022/01/19 09:23:02;;;;;;;24.37;11.02;;;;;;;2.05;64.08;101490.09;4455396;32;34081;-63
2022/01/19 09:25:32;;;;;;;29.58;9.68;;;;;;;1.94;64.90;101490.59;4464538;32;33294;-63
2022/01/19 09:28:01;;;;;;;23.80;11.20;;;;;;;1.88;65.32;101487.41;4462610;32;34445;-63
2022/01/19 09:30:28;;;;;;;22.15;9.32;;;;;;;2.29;64.63;101485.75;4461128;32;33837;-63
2022/01/19 09:33:06;;;;;;;21.37;9.55;;;;;;;1.73;66.08;101497.78;4458553;32;34754;-63
2022/01/19 09:36:05;;;;;;;22.85;9.23;;;;;;;2.17;64.72;101493.03;4465213;32;34224;-63
2022/01/19 09:38:36;;;;;;;37.55;14.75;;;;;;;2.48;64.41;101486.91;4448391;32;32363;-63
2022/01/19 09:41:07;;;;;;;26.20;11.88;;;;;;;2.21;64.92;101484.03;4466757;32;33784;-62
2022/01/19 09:43:35;;;;;;;23.00;10.63;;;;;;;2.86;62.18;101476.22;4455280;32;33292;-63
2022/01/19 09:46:03;;;;;;;27.23;11.38;;;;;;;3.14;60.72;101474.84;4445322;32;33207;-63
2022/01/19 09:48:31;;;;;;;26.45;10.00;;;;;;;2.94;61.40;101472.81;4468964;32;34725;-63
2022/01/19 09:50:58;;;;;;;27.83;12.52;;;;;;;2.81;61.87;101462.97;4458342;32;33760;-63
2022/01/19 09:53:27;;;;;;;26.40;10.85;;;;;;;2.51;63.18;101461.66;4458354;32;33946;-62
2022/01/19 09:55:55;;;;;;;27.67;11.45;;;;;;;2.75;62.38;101453.03;4462699;32;34440;-63
2022/01/19 09:58:23;;;;;;;28.95;11.20;;;;;;;2.74;62.44;101435.88;4447466;32;33662;-63
2022/01/19 10:00:51;;;;;;;21.00;9.90;;;;;;;2.07;64.01;101439.16;4456813;32;33338;-62
2022/01/19 10:03:29;;;;;;;26.73;12.70;;;;;;;2.65;63.16;101428.91;4453733;32;34095;-62
2022/01/19 10:06:05;;;;;;;23.12;10.32;;;;;;;2.94;61.70;101419.97;4459882;32;34197;-63
2022/01/19 10:08:35;;;;;;;31.70;13.90;;;;;;;2.78;61.81;101416.59;4417371;32;33543;-62
2022/01/19 10:16:58;;;;;;;30.25;11.23;;;;;;;1.85;65.80;101426.63;4460144;32;33651;-62
2022/01/19 10:17:10;;;;;;;24.83;10.80;;;;;;;2.26;65.13;101401.97;4455475;32;34260;-63
2022/01/19 10:19:46;;;;;;;28.10;11.05;;;;;;;2.88;63.50;101403.09;4431746;32;32017;-63
2022/01/19 10:22:24;;;;;;;21.12;11.05;;;;;;;3.24;61.65;101385.38;4456851;32;33804;-62
2022/01/19 10:25:01;;;;;;;27.02;9.93;;;;;;;3.57;60.92;101374.06;4434614;32;34179;-62
2022/01/19 10:27:39;;;;;;;25.33;12.50;;;;;;;3.87;59.99;101375.25;4457227;32;33522;-62
2022/01/19 10:30:06;;;;;;;40.50;14.73;;;;;;;2.20;64.95;101377.38;4462364;32;33813;-62
2022/01/19 10:32:37;;;;;;;25.73;10.98;;;;;;;2.37;65.08;101369.78;4457496;32;34654;-62
2022/01/19 10:35:16;;;;;;;24.65;12.93;;;;;;;2.48;64.60;101359.00;4465298;32;34821;-61
2022/01/19 10:37:45;;;;;;;28.05;12.88;;;;;;;2.97;63.35;101357.03;4458630;32;34542;-62
2022/01/19 10:40:15;;;;;;;31.87;12.82;;;;;;;3.46;61.76;101352.53;4466368;32;33970;-62
2022/01/19 10:42:43;;;;;;;26.37;10.60;;;;;;;3.25;62.58;101346.22;4463695;32;33703;-62
2022/01/19 10:45:13;;;;;;;25.77;11.20;;;;;;;3.50;61.24;101339.28;4464876;32;34615;-63
2022/01/19 10:47:49;;;;;;;18.98;9.32;;;;;;;3.20;61.54;101331.16;4458792;32;33686;-62
2022/01/19 10:50:26;;;;;;;26.05;9.50;;;;;;;3.04;60.93;101328.75;4443172;32;33480;-61
2022/01/19 10:52:55;;;;;;;28.40;10.75;;;;;;;3.70;59.64;101320.69;4460542;32;33931;-61
2022/01/19 10:55:22;;;;;;;25.12;9.60;;;;;;;4.01;58.83;101307.34;4461312;32;33875;-63
2022/01/19 10:57:50;;;;;;;23.60;8.55;;;;;;;3.73;59.88;101320.09;4463907;32;34580;-61
2022/01/19 11:00:23;;;;;;;21.55;8.57;;;;;;;4.27;58.06;101304.69;4451034;32;33150;-63
2022/01/19 11:02:59;;;;;;;20.92;9.70;;;;;;;3.80;58.73;101298.53;4469080;32;33974;-63
2022/01/19 11:05:45;;;;;;;20.27;9.23;;;;;;;4.01;58.67;101305.69;4441303;32;33540;-63
2022/01/19 11:08:16;;;;;;;25.23;9.45;;;;;;;4.59;56.70;101288.81;4448297;32;33700;-62
2022/01/19 11:10:48;;;;;;;22.65;8.90;;;;;;;4.17;57.66;101299.44;4468235;32;34557;-62
2022/01/19 11:13:28;;;;;;;20.23;8.45;;;;;;;3.70;58.18;101286.47;4452216;32;33604;-63
2022/01/19 11:15:57;;;;;;;17.15;7.68;;;;;;;3.46;58.64;101279.91;4447533;32;34103;-62
2022/01/19 11:18:26;;;;;;;25.83;11.12;;;;;;;4.49;56.29;101274.22;4455848;32;33447;-63
2022/01/19 11:20:54;;;;;;;22.37;8.55;;;;;;;5.15;53.95;101259.69;4458121;32;33787;-63
2022/01/19 11:23:38;;;;;;;16.02;7.97;;;;;;;4.64;55.53;101256.78;4444826;32;34588;-62
2022/01/19 11:26:10;;;;;;;20.10;7.33;;;;;;;5.37;53.96;101246.19;4460195;32;34178;-62
2022/01/19 11:28:40;;;;;;;19.92;8.13;;;;;;;5.40;53.74;101249.03;4445748;32;33376;-62
2022/01/19 11:31:11;;;;;;;21.10;7.93;;;;;;;5.78;52.77;101246.38;4445576;32;32950;-63
2022/01/19 11:33:51;;;;;;;21.15;7.12;;;;;;;5.56;52.35;101238.44;4458967;32;33673;-62
2022/01/19 11:36:34;;;;;;;19.87;7.60;;;;;;;5.66;52.61;101236.81;4460065;32;34941;-62
2022/01/19 11:39:14;;;;;;;15.48;7.60;;;;;;;5.47;53.05;101221.44;4458860;32;33381;-63
2022/01/19 11:41:54;;;;;;;16.75;7.68;;;;;;;5.96;52.37;101224.81;4461954;32;33696;-63
2022/01/19 11:44:28;;;;;;;17.23;7.28;;;;;;;5.70;52.70;101217.41;4461718;32;34193;-63
2022/01/19 11:47:11;;;;;;;20.37;7.90;;;;;;;5.62;52.91;101208.09;4459757;32;34096;-63
2022/01/19 11:49:53;;;;;;;16.37;6.65;;;;;;;5.80;52.25;101204.56;4460080;32;33764;-63
2022/01/19 11:52:25;;;;;;;18.50;7.35;;;;;;;5.15;54.82;101203.19;4463928;32;34657;-62
2022/01/19 11:55:11;;;;;;;19.70;6.15;;;;;;;4.96;54.68;101210.00;4457862;32;34000;-63
2022/01/19 11:57:40;;;;;;;22.37;8.90;;;;;;;5.74;52.74;101197.97;4464170;32;34568;-63
2022/01/19 12:00:15;;;;;;;20.15;7.72;;;;;;;6.30;50.95;101184.84;4442901;32;32144;-63
2022/01/19 12:02:46;;;;;;;19.77;7.80;;;;;;;6.47;50.16;101188.84;4466465;32;34741;-62
2022/01/19 12:05:39;;;;;;;30.05;7.87;;;;;;;6.28;51.09;101185.50;4459418;32;33764;-63
2022/01/19 12:08:30;;;;;;;24.35;7.80;;;;;;;5.35;54.40;101186.97;4460304;32;34112;-62
2022/01/19 12:11:01;;;;;;;20.37;6.75;;;;;;;5.99;53.11;101180.44;4459683;32;33722;-63
2022/01/19 12:19:13;;;;;;;25.30;12.43;;;;;;;6.68;50.20;101160.47;4459961;32;33792;-63
2022/01/19 12:21:48;;;;;;;19.12;6.53;;;;;;;5.96;52.16;101160.53;4455406;32;33315;-63
2022/01/19 12:24:37;;;;;;;17.35;6.95;;;;;;;6.20;52.41;101158.22;4438029;32;33789;-63
2022/01/19 12:27:09;;;;;;;13.05;5.40;;;;;;;6.27;50.92;101152.81;4463208;32;33702;-63
2022/01/19 12:29:36;;;;;;;19.08;5.55;;;;;;;6.39;50.92;101151.25;4456991;32;34041;-63
2022/01/19 12:32:10;;;;;;;14.30;5.55;;;;;;;6.24;51.15;101147.44;4461897;32;33517;-63
2022/01/19 12:35:04;;;;;;;21.52;5.78;;;;;;;6.21;51.25;101142.91;4460972;32;33859;-64
2022/01/19 12:37:44;;;;;;;12.40;5.53;;;;;;;6.69;49.57;101131.41;4466285;32;33480;-63
2022/01/19 12:40:21;;;;;;;17.95;5.93;;;;;;;6.80;50.04;101132.25;4457731;32;34740;-64
2022/01/19 12:42:50;;;;;;;16.92;6.65;;;;;;;6.87;49.79;101131.97;4445568;32;32287;-64
2022/01/19 12:45:26;;;;;;;19.23;6.22;;;;;;;6.79;49.88;101126.19;4457609;32;33725;-62
2022/01/19 12:48:15;;;;;;;16.08;5.60;;;;;;;7.37;48.74;101113.59;4458037;32;33914;-62
2022/01/19 12:50:45;;;;;;;16.08;6.55;;;;;;;6.67;49.74;101105.50;4465980;32;33902;-62
2022/01/19 12:53:16;;;;;;;20.40;6.18;;;;;;;6.90;49.49;101114.22;4456911;32;33660;-62
2022/01/19 12:55:47;;;;;;;17.65;6.70;;;;;;;7.61;48.31;101109.44;4461062;32;34526;-63
2022/01/19 12:58:31;;;;;;;14.50;6.20;;;;;;;7.03;49.21;101096.38;4445077;32;34014;-64
2022/01/19 13:01:06;;;;;;;14.23;6.07;;;;;;;6.71;50.30;101100.63;4463549;32;34639;-63
2022/01/19 13:03:45;;;;;;;13.88;5.80;;;;;;;6.88;49.58;101090.00;4457601;32;33632;-62
2022/01/19 13:06:15;;;;;;;19.55;6.12;;;;;;;7.02;49.49;101085.94;4458796;32;34830;-62
2022/01/19 13:09:01;;;;;;;18.33;6.47;;;;;;;6.42;50.61;101082.03;4455040;32;34500;-62
2022/01/19 13:11:37;;;;;;;14.55;6.03;;;;;;;6.82;50.33;101079.22;4455066;32;34286;-63
2022/01/19 13:14:10;;;;;;;18.17;7.37;;;;;;;7.20;48.99;101074.50;4457314;32;33518;-63
2022/01/19 13:16:46;;;;;;;18.23;6.72;;;;;;;6.95;49.43;101070.78;4459668;32;33640;-63